sensor_id;sensor_type;location;lat;lon;timestamp;temperature;humidity
10336;DHT22;5213;53.548;9.930;2024-02-04T00:00:53;5.70;1.00
10336;DHT22;5213;53.548;9.930;2024-02-04T00:03:18;6.20;1.00
10336;DHT22;5213;53.548;9.930;2024-02-04T00:05:44;5.80;1.00
10336;DHT22;5213;53.548;9.930;2024-02-04T00:08:10;5.70;1.00
10336;DHT22;5213;53.548;9.930;2024-02-04T00:10:38;5.60;1.00
10336;DHT22;5213;53.548;9.930;2024-02-04T00:13:03;5.40;1.00
10336;DHT22;5213;53.548;9.930;2024-02-04T00:15:29;5.50;1.00
10336;DHT22;5213;53.548;9.930;2024-02-04T00:17:54;5.40;1.00
10336;DHT22;5213;53.548;9.930;2024-02-04T00:20:20;5.50;1.00
10336;DHT22;5213;53.548;9.930;2024-02-04T00:22:46;5.60;1.00
10336;DHT22;5213;53.548;9.930;2024-02-04T00:25:12;5.60;1.00
10336;DHT22;5213;53.548;9.930;2024-02-04T00:27:38;6.00;1.00
10336;DHT22;5213;53.548;9.930;2024-02-04T00:30:04;5.90;1.00
10336;DHT22;5213;53.548;9.930;2024-02-04T00:32:30;5.70;1.00
10336;DHT22;5213;53.548;9.930;2024-02-04T00:34:56;5.60;1.00
10336;DHT22;5213;53.548;9.930;2024-02-04T00:37:21;5.70;1.00
10336;DHT22;5213;53.548;9.930;2024-02-04T00:39:47;5.70;1.00
10336;DHT22;5213;53.548;9.930;2024-02-04T00:42:13;5.80;1.00
10336;DHT22;5213;53.548;9.930;2024-02-04T00:44:38;5.60;1.00
10336;DHT22;5213;53.548;9.930;2024-02-04T00:47:04;5.50;1.00
10336;DHT22;5213;53.548;9.930;2024-02-04T00:49:29;5.50;1.00
10336;DHT22;5213;53.548;9.930;2024-02-04T00:51:55;5.50;1.00
10336;DHT22;5213;53.548;9.930;2024-02-04T00:54:21;5.40;1.00
10336;DHT22;5213;53.548;9.930;2024-02-04T00:56:46;5.40;1.00
10336;DHT22;5213;53.548;9.930;2024-02-04T00:59:12;5.20;1.00
10336;DHT22;5213;53.548;9.930;2024-02-04T01:01:38;5.20;1.00
10336;DHT22;5213;53.548;9.930;2024-02-04T01:04:04;5.40;1.00
10336;DHT22;5213;53.548;9.930;2024-02-04T01:06:29;5.50;1.00
10336;DHT22;5213;53.548;9.930;2024-02-04T01:08:56;6.00;1.00
10336;DHT22;5213;53.548;9.930;2024-02-04T01:11:22;5.60;1.00
10336;DHT22;5213;53.548;9.930;2024-02-04T01:13:47;5.70;1.00
10336;DHT22;5213;53.548;9.930;2024-02-04T01:16:13;5.70;1.00
10336;DHT22;5213;53.548;9.930;2024-02-04T01:18:39;5.90;1.00
10336;DHT22;5213;53.548;9.930;2024-02-04T01:21:05;6.40;1.00
10336;DHT22;5213;53.548;9.930;2024-02-04T01:23:30;6.40;1.00
10336;DHT22;5213;53.548;9.930;2024-02-04T01:25:56;6.20;1.00
10336;DHT22;5213;53.548;9.930;2024-02-04T01:28:22;6.00;1.00
10336;DHT22;5213;53.548;9.930;2024-02-04T01:30:47;6.10;1.00
10336;DHT22;5213;53.548;9.930;2024-02-04T01:33:13;6.20;1.00
10336;DHT22;5213;53.548;9.930;2024-02-04T01:35:39;6.10;1.00
10336;DHT22;5213;53.548;9.930;2024-02-04T01:38:04;6.20;1.00
10336;DHT22;5213;53.548;9.930;2024-02-04T01:40:30;6.20;1.00
10336;DHT22;5213;53.548;9.930;2024-02-04T01:42:56;6.40;1.00
10336;DHT22;5213;53.548;9.930;2024-02-04T01:45:21;6.20;1.00
10336;DHT22;5213;53.548;9.930;2024-02-04T01:47:47;6.30;1.00
10336;DHT22;5213;53.548;9.930;2024-02-04T01:50:13;6.10;1.00
10336;DHT22;5213;53.548;9.930;2024-02-04T01:52:41;6.80;1.00
10336;DHT22;5213;53.548;9.930;2024-02-04T01:55:08;6.50;1.00
10336;DHT22;5213;53.548;9.930;2024-02-04T01:57:34;6.40;1.00
10336;DHT22;5213;53.548;9.930;2024-02-04T02:00:03;6.50;1.00
10336;DHT22;5213;53.548;9.930;2024-02-04T02:02:37;6.50;1.00
10336;DHT22;5213;53.548;9.930;2024-02-04T02:05:04;6.60;1.00
10336;DHT22;5213;53.548;9.930;2024-02-04T02:07:30;6.60;1.00
10336;DHT22;5213;53.548;9.930;2024-02-04T02:09:56;6.50;1.00
10336;DHT22;5213;53.548;9.930;2024-02-04T02:12:28;6.20;1.00
10336;DHT22;5213;53.548;9.930;2024-02-04T02:15:03;6.40;1.00
10336;DHT22;5213;53.548;9.930;2024-02-04T02:17:57;6.90;1.00
10336;DHT22;5213;53.548;9.930;2024-02-04T02:20:27;6.60;1.00
10336;DHT22;5213;53.548;9.930;2024-02-04T02:23:12;6.40;1.00
10336;DHT22;5213;53.548;9.930;2024-02-04T02:25:39;6.40;1.00
10336;DHT22;5213;53.548;9.930;2024-02-04T02:28:07;6.90;1.00
10336;DHT22;5213;53.548;9.930;2024-02-04T02:30:32;6.50;1.00
10336;DHT22;5213;53.548;9.930;2024-02-04T02:32:58;6.30;1.00
10336;DHT22;5213;53.548;9.930;2024-02-04T02:35:24;6.60;1.00
10336;DHT22;5213;53.548;9.930;2024-02-04T02:37:59;6.30;1.00
10336;DHT22;5213;53.548;9.930;2024-02-04T02:40:28;5.90;1.00
10336;DHT22;5213;53.548;9.930;2024-02-04T02:42:55;6.10;1.00
10336;DHT22;5213;53.548;9.930;2024-02-04T02:45:23;6.00;1.00
10336;DHT22;5213;53.548;9.930;2024-02-04T02:47:51;6.00;1.00
10336;DHT22;5213;53.548;9.930;2024-02-04T02:50:17;6.20;1.00
10336;DHT22;5213;53.548;9.930;2024-02-04T02:52:43;6.50;1.00
10336;DHT22;5213;53.548;9.930;2024-02-04T02:55:09;6.00;1.00
10336;DHT22;5213;53.548;9.930;2024-02-04T02:57:34;6.00;1.00
10336;DHT22;5213;53.548;9.930;2024-02-04T03:00:00;6.00;1.00
10336;DHT22;5213;53.548;9.930;2024-02-04T03:02:25;6.00;1.00
10336;DHT22;5213;53.548;9.930;2024-02-04T03:04:51;6.00;1.00
10336;DHT22;5213;53.548;9.930;2024-02-04T03:07:16;6.00;1.00
10336;DHT22;5213;53.548;9.930;2024-02-04T03:09:42;5.90;1.00
10336;DHT22;5213;53.548;9.930;2024-02-04T03:12:09;5.90;1.00
10336;DHT22;5213;53.548;9.930;2024-02-04T03:14:34;6.10;1.00
10336;DHT22;5213;53.548;9.930;2024-02-04T03:17:00;6.70;1.00
10336;DHT22;5213;53.548;9.930;2024-02-04T03:19:25;6.20;1.00
10336;DHT22;5213;53.548;9.930;2024-02-04T03:21:51;6.20;1.00
10336;DHT22;5213;53.548;9.930;2024-02-04T03:24:16;6.10;1.00
10336;DHT22;5213;53.548;9.930;2024-02-04T03:26:42;6.00;1.00
10336;DHT22;5213;53.548;9.930;2024-02-04T03:29:08;6.40;1.00
10336;DHT22;5213;53.548;9.930;2024-02-04T03:31:34;6.60;1.00
10336;DHT22;5213;53.548;9.930;2024-02-04T03:33:59;6.10;1.00
10336;DHT22;5213;53.548;9.930;2024-02-04T03:36:25;6.30;1.00
10336;DHT22;5213;53.548;9.930;2024-02-04T03:38:51;6.20;1.00
10336;DHT22;5213;53.548;9.930;2024-02-04T03:41:17;6.20;1.00
10336;DHT22;5213;53.548;9.930;2024-02-04T03:43:43;6.70;1.00
10336;DHT22;5213;53.548;9.930;2024-02-04T03:46:13;6.10;1.00
10336;DHT22;5213;53.548;9.930;2024-02-04T03:48:38;6.10;1.00
10336;DHT22;5213;53.548;9.930;2024-02-04T03:51:04;6.10;1.00
10336;DHT22;5213;53.548;9.930;2024-02-04T03:53:30;6.40;1.00
10336;DHT22;5213;53.548;9.930;2024-02-04T03:55:55;5.80;1.00
10336;DHT22;5213;53.548;9.930;2024-02-04T03:58:21;5.90;1.00
10336;DHT22;5213;53.548;9.930;2024-02-04T04:00:57;6.00;1.00
10336;DHT22;5213;53.548;9.930;2024-02-04T04:03:23;5.90;1.00
10336;DHT22;5213;53.548;9.930;2024-02-04T04:05:49;6.20;1.00
10336;DHT22;5213;53.548;9.930;2024-02-04T04:08:14;5.80;1.00
10336;DHT22;5213;53.548;9.930;2024-02-04T04:10:40;5.80;1.00
10336;DHT22;5213;53.548;9.930;2024-02-04T04:13:05;5.80;1.00
10336;DHT22;5213;53.548;9.930;2024-02-04T04:15:31;6.30;1.00
10336;DHT22;5213;53.548;9.930;2024-02-04T04:17:57;5.70;1.00
10336;DHT22;5213;53.548;9.930;2024-02-04T04:20:22;5.90;1.00
10336;DHT22;5213;53.548;9.930;2024-02-04T04:22:48;5.90;1.00
10336;DHT22;5213;53.548;9.930;2024-02-04T04:25:14;5.70;1.00
10336;DHT22;5213;53.548;9.930;2024-02-04T04:27:40;6.20;1.00
10336;DHT22;5213;53.548;9.930;2024-02-04T04:30:06;6.40;1.00
10336;DHT22;5213;53.548;9.930;2024-02-04T04:32:32;5.80;1.00
10336;DHT22;5213;53.548;9.930;2024-02-04T04:34:57;5.60;1.00
10336;DHT22;5213;53.548;9.930;2024-02-04T04:37:23;5.80;1.00
10336;DHT22;5213;53.548;9.930;2024-02-04T04:39:49;5.70;1.00
10336;DHT22;5213;53.548;9.930;2024-02-04T04:42:14;5.70;1.00
10336;DHT22;5213;53.548;9.930;2024-02-04T04:44:40;5.60;1.00
10336;DHT22;5213;53.548;9.930;2024-02-04T04:47:05;5.60;1.00
10336;DHT22;5213;53.548;9.930;2024-02-04T04:49:31;5.60;1.00
10336;DHT22;5213;53.548;9.930;2024-02-04T04:51:57;5.60;1.00
10336;DHT22;5213;53.548;9.930;2024-02-04T04:54:22;5.60;1.00
10336;DHT22;5213;53.548;9.930;2024-02-04T04:56:48;5.60;1.00
10336;DHT22;5213;53.548;9.930;2024-02-04T04:59:15;5.60;1.00
10336;DHT22;5213;53.548;9.930;2024-02-04T05:01:48;5.50;1.00
10336;DHT22;5213;53.548;9.930;2024-02-04T05:04:14;5.60;1.00
10336;DHT22;5213;53.548;9.930;2024-02-04T05:06:40;5.60;1.00
10336;DHT22;5213;53.548;9.930;2024-02-04T05:09:06;6.10;1.00
10336;DHT22;5213;53.548;9.930;2024-02-04T05:11:31;5.50;1.00
10336;DHT22;5213;53.548;9.930;2024-02-04T05:13:57;6.00;1.00
10336;DHT22;5213;53.548;9.930;2024-02-04T05:16:23;5.50;1.00
10336;DHT22;5213;53.548;9.930;2024-02-04T05:18:48;5.40;1.00
10336;DHT22;5213;53.548;9.930;2024-02-04T05:21:14;5.50;1.00
10336;DHT22;5213;53.548;9.930;2024-02-04T05:23:40;5.50;1.00
10336;DHT22;5213;53.548;9.930;2024-02-04T05:26:05;5.40;1.00
10336;DHT22;5213;53.548;9.930;2024-02-04T05:28:32;5.30;1.00
10336;DHT22;5213;53.548;9.930;2024-02-04T05:30:58;5.60;1.00
10336;DHT22;5213;53.548;9.930;2024-02-04T05:33:23;5.90;1.00
10336;DHT22;5213;53.548;9.930;2024-02-04T05:35:49;5.50;1.00
10336;DHT22;5213;53.548;9.930;2024-02-04T05:38:16;5.50;1.00
10336;DHT22;5213;53.548;9.930;2024-02-04T05:40:42;5.50;1.00
10336;DHT22;5213;53.548;9.930;2024-02-04T05:43:08;5.60;1.00
10336;DHT22;5213;53.548;9.930;2024-02-04T05:45:38;5.90;1.00
10336;DHT22;5213;53.548;9.930;2024-02-04T05:48:07;5.50;1.00
10336;DHT22;5213;53.548;9.930;2024-02-04T05:50:32;5.50;1.00
10336;DHT22;5213;53.548;9.930;2024-02-04T05:52:58;5.30;1.00
10336;DHT22;5213;53.548;9.930;2024-02-04T05:55:23;5.50;1.00
10336;DHT22;5213;53.548;9.930;2024-02-04T05:57:49;5.80;1.00
10336;DHT22;5213;53.548;9.930;2024-02-04T06:00:15;5.40;1.00
10336;DHT22;5213;53.548;9.930;2024-02-04T06:02:41;5.70;1.00
10336;DHT22;5213;53.548;9.930;2024-02-04T06:05:08;5.90;1.00
10336;DHT22;5213;53.548;9.930;2024-02-04T06:07:34;5.70;1.00
10336;DHT22;5213;53.548;9.930;2024-02-04T06:10:00;5.70;1.00
10336;DHT22;5213;53.548;9.930;2024-02-04T06:12:28;5.70;1.00
10336;DHT22;5213;53.548;9.930;2024-02-04T06:14:54;5.70;1.00
10336;DHT22;5213;53.548;9.930;2024-02-04T06:17:19;5.70;1.00
10336;DHT22;5213;53.548;9.930;2024-02-04T06:19:45;5.60;1.00
10336;DHT22;5213;53.548;9.930;2024-02-04T06:22:11;5.60;1.00
10336;DHT22;5213;53.548;9.930;2024-02-04T06:24:36;5.80;1.00
10336;DHT22;5213;53.548;9.930;2024-02-04T06:27:04;5.60;1.00
10336;DHT22;5213;53.548;9.930;2024-02-04T06:29:30;5.50;1.00
10336;DHT22;5213;53.548;9.930;2024-02-04T06:31:55;5.80;1.00
10336;DHT22;5213;53.548;9.930;2024-02-04T06:34:21;5.70;1.00
10336;DHT22;5213;53.548;9.930;2024-02-04T06:36:47;6.20;1.00
10336;DHT22;5213;53.548;9.930;2024-02-04T06:39:13;5.80;1.00
10336;DHT22;5213;53.548;9.930;2024-02-04T06:41:39;5.90;1.00
10336;DHT22;5213;53.548;9.930;2024-02-04T06:44:05;5.80;1.00
10336;DHT22;5213;53.548;9.930;2024-02-04T06:46:31;6.00;1.00
10336;DHT22;5213;53.548;9.930;2024-02-04T06:48:56;6.60;1.00
10336;DHT22;5213;53.548;9.930;2024-02-04T06:51:22;6.10;1.00
10336;DHT22;5213;53.548;9.930;2024-02-04T06:53:48;6.00;1.00
10336;DHT22;5213;53.548;9.930;2024-02-04T06:56:14;5.90;1.00
10336;DHT22;5213;53.548;9.930;2024-02-04T06:58:41;5.90;1.00
10336;DHT22;5213;53.548;9.930;2024-02-04T07:01:06;6.10;1.00
10336;DHT22;5213;53.548;9.930;2024-02-04T07:03:32;6.40;1.00
10336;DHT22;5213;53.548;9.930;2024-02-04T07:05:59;5.80;1.00
10336;DHT22;5213;53.548;9.930;2024-02-04T07:08:25;5.70;1.00
10336;DHT22;5213;53.548;9.930;2024-02-04T07:10:51;5.80;1.00
10336;DHT22;5213;53.548;9.930;2024-02-04T07:13:17;5.80;1.00
10336;DHT22;5213;53.548;9.930;2024-02-04T07:15:42;5.90;1.00
10336;DHT22;5213;53.548;9.930;2024-02-04T07:18:08;5.70;1.00
10336;DHT22;5213;53.548;9.930;2024-02-04T07:20:34;5.80;1.00
10336;DHT22;5213;53.548;9.930;2024-02-04T07:22:59;6.50;1.00
10336;DHT22;5213;53.548;9.930;2024-02-04T07:25:25;5.80;1.00
10336;DHT22;5213;53.548;9.930;2024-02-04T07:27:51;6.00;1.00
10336;DHT22;5213;53.548;9.930;2024-02-04T07:30:16;6.00;1.00
10336;DHT22;5213;53.548;9.930;2024-02-04T07:32:42;6.00;1.00
10336;DHT22;5213;53.548;9.930;2024-02-04T07:35:08;5.90;1.00
10336;DHT22;5213;53.548;9.930;2024-02-04T07:37:34;6.10;1.00
10336;DHT22;5213;53.548;9.930;2024-02-04T07:40:01;6.10;1.00
10336;DHT22;5213;53.548;9.930;2024-02-04T07:42:27;6.00;1.00
10336;DHT22;5213;53.548;9.930;2024-02-04T07:44:53;6.00;1.00
10336;DHT22;5213;53.548;9.930;2024-02-04T07:47:19;6.20;1.00
10336;DHT22;5213;53.548;9.930;2024-02-04T07:49:47;6.60;1.00
10336;DHT22;5213;53.548;9.930;2024-02-04T07:52:13;6.10;1.00
10336;DHT22;5213;53.548;9.930;2024-02-04T07:54:38;6.20;1.00
10336;DHT22;5213;53.548;9.930;2024-02-04T07:57:04;6.20;1.00
10336;DHT22;5213;53.548;9.930;2024-02-04T07:59:29;6.20;1.00
10336;DHT22;5213;53.548;9.930;2024-02-04T08:01:55;6.30;1.00
10336;DHT22;5213;53.548;9.930;2024-02-04T08:04:20;6.60;1.00
10336;DHT22;5213;53.548;9.930;2024-02-04T08:06:46;6.80;1.00
10336;DHT22;5213;53.548;9.930;2024-02-04T08:09:12;6.50;1.00
10336;DHT22;5213;53.548;9.930;2024-02-04T08:11:37;6.40;1.00
10336;DHT22;5213;53.548;9.930;2024-02-04T08:14:03;6.40;1.00
10336;DHT22;5213;53.548;9.930;2024-02-04T08:16:29;6.70;1.00
10336;DHT22;5213;53.548;9.930;2024-02-04T08:18:55;6.30;1.00
10336;DHT22;5213;53.548;9.930;2024-02-04T08:21:21;6.30;1.00
10336;DHT22;5213;53.548;9.930;2024-02-04T08:23:46;6.30;1.00
10336;DHT22;5213;53.548;9.930;2024-02-04T08:26:12;6.90;1.00
10336;DHT22;5213;53.548;9.930;2024-02-04T08:28:38;6.50;1.00
10336;DHT22;5213;53.548;9.930;2024-02-04T08:31:04;6.50;1.00
10336;DHT22;5213;53.548;9.930;2024-02-04T08:33:29;6.60;1.00
10336;DHT22;5213;53.548;9.930;2024-02-04T08:35:55;6.80;1.00
10336;DHT22;5213;53.548;9.930;2024-02-04T08:38:20;6.60;1.00
10336;DHT22;5213;53.548;9.930;2024-02-04T08:40:46;6.60;1.00
10336;DHT22;5213;53.548;9.930;2024-02-04T08:43:12;6.70;99.90
10336;DHT22;5213;53.548;9.930;2024-02-04T08:45:37;6.90;99.90
10336;DHT22;5213;53.548;9.930;2024-02-04T08:48:03;6.80;99.90
10336;DHT22;5213;53.548;9.930;2024-02-04T08:50:29;6.90;99.90
10336;DHT22;5213;53.548;9.930;2024-02-04T08:52:55;6.90;99.90
10336;DHT22;5213;53.548;9.930;2024-02-04T08:55:21;6.70;99.90
10336;DHT22;5213;53.548;9.930;2024-02-04T08:57:46;6.90;99.90
10336;DHT22;5213;53.548;9.930;2024-02-04T09:00:14;7.00;99.90
10336;DHT22;5213;53.548;9.930;2024-02-04T09:02:40;7.00;99.90
10336;DHT22;5213;53.548;9.930;2024-02-04T09:05:06;6.90;99.90
10336;DHT22;5213;53.548;9.930;2024-02-04T09:07:31;7.00;99.90
10336;DHT22;5213;53.548;9.930;2024-02-04T09:09:57;6.90;99.90
10336;DHT22;5213;53.548;9.930;2024-02-04T09:12:23;6.90;99.90
10336;DHT22;5213;53.548;9.930;2024-02-04T09:14:48;7.00;99.90
10336;DHT22;5213;53.548;9.930;2024-02-04T09:17:14;7.00;99.90
10336;DHT22;5213;53.548;9.930;2024-02-04T09:19:40;7.40;99.90
10336;DHT22;5213;53.548;9.930;2024-02-04T09:22:05;7.50;99.90
10336;DHT22;5213;53.548;9.930;2024-02-04T09:24:32;7.30;99.90
10336;DHT22;5213;53.548;9.930;2024-02-04T09:26:58;7.20;99.90
10336;DHT22;5213;53.548;9.930;2024-02-04T09:29:23;7.10;99.90
10336;DHT22;5213;53.548;9.930;2024-02-04T09:31:49;7.60;99.90
10336;DHT22;5213;53.548;9.930;2024-02-04T09:34:19;7.10;99.90
10336;DHT22;5213;53.548;9.930;2024-02-04T09:36:45;7.20;99.90
10336;DHT22;5213;53.548;9.930;2024-02-04T09:39:10;7.20;99.90
10336;DHT22;5213;53.548;9.930;2024-02-04T09:41:37;7.30;99.90
10336;DHT22;5213;53.548;9.930;2024-02-04T09:44:02;7.40;99.90
10336;DHT22;5213;53.548;9.930;2024-02-04T09:46:29;7.40;99.90
10336;DHT22;5213;53.548;9.930;2024-02-04T09:48:55;7.40;99.90
10336;DHT22;5213;53.548;9.930;2024-02-04T09:51:21;7.50;99.90
10336;DHT22;5213;53.548;9.930;2024-02-04T09:53:51;7.40;99.90
10336;DHT22;5213;53.548;9.930;2024-02-04T09:56:18;7.30;99.90
10336;DHT22;5213;53.548;9.930;2024-02-04T09:58:44;7.80;99.90
10336;DHT22;5213;53.548;9.930;2024-02-04T10:01:10;7.30;99.90
10336;DHT22;5213;53.548;9.930;2024-02-04T10:03:37;7.90;99.90
10336;DHT22;5213;53.548;9.930;2024-02-04T10:06:03;7.50;99.90
10336;DHT22;5213;53.548;9.930;2024-02-04T10:08:28;7.40;99.90
10336;DHT22;5213;53.548;9.930;2024-02-04T10:10:54;7.60;99.90
10336;DHT22;5213;53.548;9.930;2024-02-04T10:13:20;7.40;99.90
10336;DHT22;5213;53.548;9.930;2024-02-04T10:15:50;7.40;99.90
10336;DHT22;5213;53.548;9.930;2024-02-04T10:18:17;7.70;99.90
10336;DHT22;5213;53.548;9.930;2024-02-04T10:20:43;7.80;99.90
10336;DHT22;5213;53.548;9.930;2024-02-04T10:23:09;7.50;99.90
10336;DHT22;5213;53.548;9.930;2024-02-04T10:25:35;7.40;99.90
10336;DHT22;5213;53.548;9.930;2024-02-04T10:28:00;7.60;99.90
10336;DHT22;5213;53.548;9.930;2024-02-04T10:30:26;7.80;99.90
10336;DHT22;5213;53.548;9.930;2024-02-04T10:32:52;7.40;99.90
10336;DHT22;5213;53.548;9.930;2024-02-04T10:35:20;7.50;99.90
10336;DHT22;5213;53.548;9.930;2024-02-04T10:37:51;7.70;99.90
10336;DHT22;5213;53.548;9.930;2024-02-04T10:40:17;7.50;99.90
10336;DHT22;5213;53.548;9.930;2024-02-04T10:42:43;7.70;99.90
10336;DHT22;5213;53.548;9.930;2024-02-04T10:45:10;7.60;99.90
10336;DHT22;5213;53.548;9.930;2024-02-04T10:47:40;7.50;99.90
10336;DHT22;5213;53.548;9.930;2024-02-04T10:50:06;7.90;99.90
10336;DHT22;5213;53.548;9.930;2024-02-04T10:52:39;7.70;99.90
10336;DHT22;5213;53.548;9.930;2024-02-04T10:55:09;7.80;99.90
10336;DHT22;5213;53.548;9.930;2024-02-04T10:57:35;7.80;99.90
10336;DHT22;5213;53.548;9.930;2024-02-04T11:00:03;7.80;99.90
10336;DHT22;5213;53.548;9.930;2024-02-04T11:02:38;7.80;99.90
10336;DHT22;5213;53.548;9.930;2024-02-04T11:05:05;8.20;99.90
10336;DHT22;5213;53.548;9.930;2024-02-04T11:07:34;7.80;99.90
10336;DHT22;5213;53.548;9.930;2024-02-04T11:10:01;7.80;99.90
10336;DHT22;5213;53.548;9.930;2024-02-04T11:12:29;7.90;99.90
10336;DHT22;5213;53.548;9.930;2024-02-04T11:14:58;7.70;99.90
10336;DHT22;5213;53.548;9.930;2024-02-04T11:20:15;7.80;99.90
10336;DHT22;5213;53.548;9.930;2024-02-04T11:23:11;7.90;99.90
10336;DHT22;5213;53.548;9.930;2024-02-04T11:25:47;7.90;99.90
10336;DHT22;5213;53.548;9.930;2024-02-04T11:28:13;8.50;99.90
10336;DHT22;5213;53.548;9.930;2024-02-04T11:30:43;7.90;99.90
10336;DHT22;5213;53.548;9.930;2024-02-04T11:33:11;8.60;99.90
10336;DHT22;5213;53.548;9.930;2024-02-04T11:35:37;8.00;99.90
10336;DHT22;5213;53.548;9.930;2024-02-04T11:38:03;8.00;99.90
10336;DHT22;5213;53.548;9.930;2024-02-04T11:40:36;8.20;99.90
10336;DHT22;5213;53.548;9.930;2024-02-04T11:43:13;8.30;99.90
10336;DHT22;5213;53.548;9.930;2024-02-04T11:45:40;8.10;99.90
10336;DHT22;5213;53.548;9.930;2024-02-04T11:48:07;8.20;99.90
10336;DHT22;5213;53.548;9.930;2024-02-04T11:50:33;8.30;99.90
10336;DHT22;5213;53.548;9.930;2024-02-04T11:53:08;8.30;99.90
10336;DHT22;5213;53.548;9.930;2024-02-04T11:55:35;8.80;99.90
10336;DHT22;5213;53.548;9.930;2024-02-04T11:58:05;8.50;99.90
10336;DHT22;5213;53.548;9.930;2024-02-04T12:00:33;8.50;99.90
10336;DHT22;5213;53.548;9.930;2024-02-04T12:03:03;8.20;99.90
10336;DHT22;5213;53.548;9.930;2024-02-04T12:05:34;8.10;99.90
10336;DHT22;5213;53.548;9.930;2024-02-04T12:08:02;8.40;99.90
10336;DHT22;5213;53.548;9.930;2024-02-04T12:10:29;8.20;99.90
10336;DHT22;5213;53.548;9.930;2024-02-04T12:12:56;8.30;99.90
10336;DHT22;5213;53.548;9.930;2024-02-04T12:15:22;8.10;99.90
10336;DHT22;5213;53.548;9.930;2024-02-04T12:17:48;8.40;99.90
10336;DHT22;5213;53.548;9.930;2024-02-04T12:20:14;8.50;99.90
10336;DHT22;5213;53.548;9.930;2024-02-04T12:22:40;8.60;99.90
10336;DHT22;5213;53.548;9.930;2024-02-04T12:25:06;8.40;99.90
10336;DHT22;5213;53.548;9.930;2024-02-04T12:27:32;8.60;99.90
10336;DHT22;5213;53.548;9.930;2024-02-04T12:29:58;8.60;99.90
10336;DHT22;5213;53.548;9.930;2024-02-04T12:32:24;8.80;99.90
10336;DHT22;5213;53.548;9.930;2024-02-04T12:34:51;8.50;99.90
10336;DHT22;5213;53.548;9.930;2024-02-04T12:37:21;8.60;99.90
10336;DHT22;5213;53.548;9.930;2024-02-04T12:39:47;8.40;99.90
10336;DHT22;5213;53.548;9.930;2024-02-04T12:42:16;8.90;99.90
10336;DHT22;5213;53.548;9.930;2024-02-04T12:44:47;9.30;99.90
10336;DHT22;5213;53.548;9.930;2024-02-04T12:47:13;8.40;99.90
10336;DHT22;5213;53.548;9.930;2024-02-04T12:49:40;8.70;99.90
10336;DHT22;5213;53.548;9.930;2024-02-04T12:52:06;8.40;99.90
10336;DHT22;5213;53.548;9.930;2024-02-04T12:54:41;8.60;99.90
10336;DHT22;5213;53.548;9.930;2024-02-04T12:57:07;8.50;99.90
10336;DHT22;5213;53.548;9.930;2024-02-04T12:59:36;8.40;99.90
10336;DHT22;5213;53.548;9.930;2024-02-04T13:02:03;8.50;99.90
10336;DHT22;5213;53.548;9.930;2024-02-04T13:04:37;8.50;99.90
10336;DHT22;5213;53.548;9.930;2024-02-04T13:07:07;8.50;99.90
10336;DHT22;5213;53.548;9.930;2024-02-04T13:09:38;8.50;99.90
10336;DHT22;5213;53.548;9.930;2024-02-04T13:12:04;8.50;99.90
10336;DHT22;5213;53.548;9.930;2024-02-04T13:14:30;8.50;99.90
10336;DHT22;5213;53.548;9.930;2024-02-04T13:16:56;8.50;99.90
10336;DHT22;5213;53.548;9.930;2024-02-04T13:19:21;8.40;99.90
10336;DHT22;5213;53.548;9.930;2024-02-04T13:21:47;8.50;99.90
10336;DHT22;5213;53.548;9.930;2024-02-04T13:24:13;8.40;99.90
10336;DHT22;5213;53.548;9.930;2024-02-04T13:26:38;8.50;99.90
10336;DHT22;5213;53.548;9.930;2024-02-04T13:29:10;8.90;99.90
10336;DHT22;5213;53.548;9.930;2024-02-04T13:31:38;8.90;99.90
10336;DHT22;5213;53.548;9.930;2024-02-04T13:34:07;9.70;99.90
10336;DHT22;5213;53.548;9.930;2024-02-04T13:36:33;8.50;99.90
10336;DHT22;5213;53.548;9.930;2024-02-04T13:38:58;8.50;99.90
10336;DHT22;5213;53.548;9.930;2024-02-04T13:41:24;8.40;99.90
10336;DHT22;5213;53.548;9.930;2024-02-04T13:43:49;9.00;99.90
10336;DHT22;5213;53.548;9.930;2024-02-04T13:46:16;9.50;99.90
10336;DHT22;5213;53.548;9.930;2024-02-04T13:48:41;8.40;99.90
10336;DHT22;5213;53.548;9.930;2024-02-04T13:51:07;8.50;99.90
10336;DHT22;5213;53.548;9.930;2024-02-04T13:53:33;8.90;99.90
10336;DHT22;5213;53.548;9.930;2024-02-04T13:56:01;8.20;99.90
10336;DHT22;5213;53.548;9.930;2024-02-04T13:58:26;8.70;99.90
10336;DHT22;5213;53.548;9.930;2024-02-04T14:00:52;8.40;99.90
10336;DHT22;5213;53.548;9.930;2024-02-04T14:03:18;8.30;99.90
10336;DHT22;5213;53.548;9.930;2024-02-04T14:05:44;8.40;99.90
10336;DHT22;5213;53.548;9.930;2024-02-04T14:08:09;8.60;99.90
10336;DHT22;5213;53.548;9.930;2024-02-04T14:10:35;9.20;99.90
10336;DHT22;5213;53.548;9.930;2024-02-04T14:13:00;8.40;99.90
10336;DHT22;5213;53.548;9.930;2024-02-04T14:15:26;8.90;99.90
10336;DHT22;5213;53.548;9.930;2024-02-04T14:17:51;9.40;99.90
10336;DHT22;5213;53.548;9.930;2024-02-04T14:20:19;8.50;99.90
10336;DHT22;5213;53.548;9.930;2024-02-04T14:22:44;8.30;99.90
10336;DHT22;5213;53.548;9.930;2024-02-04T14:25:10;8.30;99.90
10336;DHT22;5213;53.548;9.930;2024-02-04T14:27:36;8.20;99.90
10336;DHT22;5213;53.548;9.930;2024-02-04T14:30:02;8.50;99.90
10336;DHT22;5213;53.548;9.930;2024-02-04T14:32:28;8.40;99.90
10336;DHT22;5213;53.548;9.930;2024-02-04T14:34:54;8.30;99.90
10336;DHT22;5213;53.548;9.930;2024-02-04T14:37:20;9.10;99.90
10336;DHT22;5213;53.548;9.930;2024-02-04T14:39:46;8.30;99.90
10336;DHT22;5213;53.548;9.930;2024-02-04T14:42:16;8.00;99.90
10336;DHT22;5213;53.548;9.930;2024-02-04T14:44:44;8.30;99.90
10336;DHT22;5213;53.548;9.930;2024-02-04T14:47:10;9.20;99.90
10336;DHT22;5213;53.548;9.930;2024-02-04T14:49:36;8.30;99.90
10336;DHT22;5213;53.548;9.930;2024-02-04T14:52:02;8.50;99.90
10336;DHT22;5213;53.548;9.930;2024-02-04T14:54:28;8.20;99.90
10336;DHT22;5213;53.548;9.930;2024-02-04T14:56:54;8.30;99.90
10336;DHT22;5213;53.548;9.930;2024-02-04T14:59:19;8.10;99.90
10336;DHT22;5213;53.548;9.930;2024-02-04T15:01:45;8.10;99.90
10336;DHT22;5213;53.548;9.930;2024-02-04T15:04:14;8.00;99.90
10336;DHT22;5213;53.548;9.930;2024-02-04T15:06:41;8.40;99.90
10336;DHT22;5213;53.548;9.930;2024-02-04T15:09:07;8.10;99.90
10336;DHT22;5213;53.548;9.930;2024-02-04T15:11:33;8.10;99.90
10336;DHT22;5213;53.548;9.930;2024-02-04T15:13:59;8.00;99.90
10336;DHT22;5213;53.548;9.930;2024-02-04T15:16:25;7.90;99.90
10336;DHT22;5213;53.548;9.930;2024-02-04T15:18:51;7.80;1.00
10336;DHT22;5213;53.548;9.930;2024-02-04T15:21:18;7.80;1.00
10336;DHT22;5213;53.548;9.930;2024-02-04T15:23:44;7.70;1.00
10336;DHT22;5213;53.548;9.930;2024-02-04T15:26:14;7.70;1.00
10336;DHT22;5213;53.548;9.930;2024-02-04T15:28:41;7.60;1.00
10336;DHT22;5213;53.548;9.930;2024-02-04T15:31:10;7.70;1.00
10336;DHT22;5213;53.548;9.930;2024-02-04T15:33:36;7.60;1.00
10336;DHT22;5213;53.548;9.930;2024-02-04T15:36:01;7.50;1.00
10336;DHT22;5213;53.548;9.930;2024-02-04T15:38:27;7.30;1.00
10336;DHT22;5213;53.548;9.930;2024-02-04T15:40:54;7.70;1.00
10336;DHT22;5213;53.548;9.930;2024-02-04T15:43:19;7.30;1.00
10336;DHT22;5213;53.548;9.930;2024-02-04T15:45:47;7.40;1.00
10336;DHT22;5213;53.548;9.930;2024-02-04T15:48:17;7.30;1.00
10336;DHT22;5213;53.548;9.930;2024-02-04T15:50:44;7.60;1.00
10336;DHT22;5213;53.548;9.930;2024-02-04T15:53:10;7.30;1.00
10336;DHT22;5213;53.548;9.930;2024-02-04T15:55:36;7.30;1.00
10336;DHT22;5213;53.548;9.930;2024-02-04T15:58:03;7.20;1.00
10336;DHT22;5213;53.548;9.930;2024-02-04T16:00:33;7.30;1.00
10336;DHT22;5213;53.548;9.930;2024-02-04T16:02:59;7.20;1.00
10336;DHT22;5213;53.548;9.930;2024-02-04T16:05:25;7.20;1.00
10336;DHT22;5213;53.548;9.930;2024-02-04T16:07:51;7.20;1.00
10336;DHT22;5213;53.548;9.930;2024-02-04T16:10:18;7.10;1.00